Terminal Aerodrome Forecast
Issued by NWS

Home | Current Version | Previous Version | Text Only | Print | Product List | Glossary On
Versions: 1 2 3 4 5 6 7 8 9 10 11 12
000
FTUS45 KTFX 221100
TAFHLN
TAF
KHLN 221131Z 2212/2312 22015G25KT P6SM VCSH BKN070 OVC120
     FM221800 26025G35KT P6SM OVC100
     FM230400 27015G25KT P6SM BKN090=

USA.gov is the U.S. government's official web portal to all federal, state and local government web resources and services.